Time;durP1;ratioP1;P1;durP2;ratioP2;P2;SDS_P1;SDS_P2;PMS_P1;PMS_P2;Temp;Humidity;BMP_temperature;BMP_pressure;BME280_temperature;BME280_humidity;BME280_pressure;Samples;Min_cycle;Max_cycle;Signal;HPM_P1;HPM_P2
2024/01/14 00:04:45;;;;;;;6.00;3.60;;;;;;;-1.78;74.82;97849.61;102680;1292;600092;-28
2024/01/14 00:07:13;;;;;;;6.70;3.60;;;;;;;-1.64;74.19;97848.56;105635;1254;61165;-29
2024/01/14 00:09:41;;;;;;;7.00;4.40;;;;;;;-1.73;74.24;97840.17;105633;1259;61176;-29
2024/01/14 00:12:10;;;;;;;5.80;3.60;;;;;;;-1.91;75.34;97839.05;105625;1254;72348;-29
2024/01/14 00:14:37;;;;;;;3.70;1.90;;;;;;;-1.99;74.93;97834.15;105665;1254;74319;-29
2024/01/14 00:17:05;;;;;;;8.30;5.50;;;;;;;-2.24;76.81;97833.66;105625;1257;72638;-29
2024/01/14 00:19:33;;;;;;;5.50;3.30;;;;;;;-2.32;77.89;97832.52;105655;1253;159403;-29
2024/01/14 00:22:01;;;;;;;6.30;3.20;;;;;;;-1.72;77.90;97828.70;105820;1253;61052;-29
2024/01/14 00:24:28;;;;;;;6.30;4.00;;;;;;;-1.13;75.96;97826.21;105765;1257;69986;-29
2024/01/14 00:26:56;;;;;;;6.10;3.20;;;;;;;-1.00;75.17;97819.91;105730;1253;74276;-29
2024/01/14 00:29:24;;;;;;;5.80;3.60;;;;;;;-1.28;75.98;97819.32;105632;1260;72395;-29
2024/01/14 00:31:52;;;;;;;7.10;4.90;;;;;;;-1.37;76.00;97816.03;105596;1256;61122;-29
2024/01/14 00:34:19;;;;;;;9.80;5.40;;;;;;;-1.59;77.50;97813.44;105643;1259;61260;-29
2024/01/14 00:36:47;;;;;;;8.20;4.30;;;;;;;-1.77;78.36;97814.84;105633;1259;72476;-29
2024/01/14 00:39:16;;;;;;;6.80;4.70;;;;;;;-1.67;79.43;97810.13;105657;1254;73183;-29
2024/01/14 00:41:44;;;;;;;7.50;4.90;;;;;;;-1.11;78.02;97811.30;105725;1254;71385;-29
2024/01/14 00:51:47;;;;;;;4.00;3.40;;;;;;;-1.29;79.02;97790.77;102685;1293;599287;-29
2024/01/14 00:54:15;;;;;;;8.10;4.10;;;;;;;-1.37;80.49;97787.30;105287;1260;61185;-29
2024/01/14 01:04:28;;;;;;;8.30;4.20;;;;;;;-0.47;76.87;97771.34;102648;1291;599277;-27
2024/01/14 01:14:33;;;;;;;6.20;4.30;;;;;;;-0.24;77.40;97755.66;102681;1292;599404;-27
2024/01/14 01:17:01;;;;;;;6.50;4.00;;;;;;;0.02;75.93;97750.77;104839;1267;61174;-28
2024/01/14 01:19:28;;;;;;;9.00;5.40;;;;;;;-0.07;75.98;97747.58;104828;1269;61186;-29
2024/01/14 01:21:56;;;;;;;9.10;5.20;;;;;;;-0.05;75.59;97746.96;104849;1270;70636;-29
2024/01/14 01:24:24;;;;;;;6.70;4.30;;;;;;;-0.31;76.25;97737.36;104828;1270;73027;-29
2024/01/14 01:26:52;;;;;;;6.30;4.30;;;;;;;-0.47;76.64;97734.34;104857;1270;75181;-29
2024/01/14 01:29:20;;;;;;;4.80;2.90;;;;;;;-0.29;77.35;97731.61;105030;1264;164993;-29
2024/01/14 01:31:47;;;;;;;10.00;5.40;;;;;;;0.34;75.42;97735.06;105252;1260;61058;-30
2024/01/14 01:34:22;;;;;;;8.20;4.70;;;;;;;0.46;74.57;97731.10;105251;1260;71966;-28
2024/01/14 01:36:49;;;;;;;5.90;4.10;;;;;;;0.40;74.34;97727.70;105250;1261;74286;-30
2024/01/14 01:39:17;;;;;;;9.20;5.10;;;;;;;0.06;75.18;97721.35;105210;1264;72616;-28
2024/01/14 01:41:44;;;;;;;7.50;4.40;;;;;;;-0.06;75.54;97719.50;105220;1264;61118;-28
2024/01/14 01:44:12;;;;;;;5.00;3.40;;;;;;;-0.25;76.13;97719.27;105174;1265;61199;-28
2024/01/14 01:46:40;;;;;;;3.40;2.80;;;;;;;-0.15;76.51;97716.13;105251;1260;73033;-28
2024/01/14 01:56:50;;;;;;;6.30;4.50;;;;;;;0.26;75.37;97702.63;103097;1285;599435;-28
2024/01/14 01:59:18;;;;;;;7.70;4.70;;;;;;;0.04;75.60;97697.56;105352;1256;61065;-28
2024/01/14 02:09:23;;;;;;;5.30;3.90;;;;;;;0.51;74.36;97691.34;102752;1294;600052;-27
2024/01/14 02:11:51;;;;;;;4.90;4.10;;;;;;;0.18;75.00;97684.66;104946;1270;61207;-28
2024/01/14 02:14:19;;;;;;;8.90;5.30;;;;;;;-0.04;75.10;97679.80;104829;1264;61104;-29
2024/01/14 02:16:47;;;;;;;9.10;5.60;;;;;;;-0.18;75.49;97683.55;105498;1253;72152;-29
2024/01/14 02:19:14;;;;;;;5.40;3.70;;;;;;;-0.23;75.77;97675.96;105458;1259;74485;-29
2024/01/14 02:21:49;;;;;;;9.40;5.40;;;;;;;0.34;74.23;97673.93;105605;1254;71412;-29
2024/01/14 02:24:29;;;;;;;9.60;5.50;;;;;;;0.45;73.69;97680.96;105568;1254;61077;-29
2024/01/14 02:26:57;;;;;;;7.00;4.20;;;;;;;0.13;74.52;97672.45;105679;1259;61148;-29
2024/01/14 02:29:28;;;;;;;11.40;6.70;;;;;;;-0.01;74.58;97665.49;105754;1258;70690;-29
2024/01/14 02:31:56;;;;;;;5.20;3.10;;;;;;;-0.37;75.80;97663.34;105611;1261;73441;-30
2024/01/14 02:34:23;;;;;;;5.70;4.20;;;;;;;-0.33;76.62;97666.86;105715;1259;72621;-28
2024/01/14 02:36:52;;;;;;;9.40;5.60;;;;;;;0.26;74.29;97665.04;105681;1259;61164;-29
2024/01/14 02:47:00;;;;;;;9.80;5.70;;;;;;;-0.34;74.01;97641.13;102682;1295;598907;-26
2024/01/14 02:49:27;;;;;;;8.40;5.30;;;;;;;-0.78;75.33;97651.39;105606;1254;61129;-28
2024/01/14 02:51:56;;;;;;;9.40;5.50;;;;;;;-0.38;74.69;97651.95;105624;1259;61105;-29
2024/01/14 02:54:23;;;;;;;6.30;4.50;;;;;;;0.06;73.01;97652.07;105644;1254;70306;-29
2024/01/14 02:56:51;;;;;;;25.20;6.80;;;;;;;0.06;72.50;97650.52;105631;1254;74267;-29
2024/01/14 02:59:18;;;;;;;12.40;6.40;;;;;;;-0.09;72.84;97646.51;105655;1255;71486;-29
2024/01/14 03:01:46;;;;;;;9.60;5.60;;;;;;;-0.36;73.37;97640.28;105681;1253;177060;-29
2024/01/14 03:04:14;;;;;;;8.10;4.80;;;;;;;-0.57;74.55;97634.66;105825;1254;61003;-29
2024/01/14 03:06:42;;;;;;;7.20;4.80;;;;;;;-0.80;75.00;97632.24;105910;1256;70999;-28
2024/01/14 03:16:51;;;;;;;5.60;3.70;;;;;;;-0.07;72.18;97629.65;102750;1288;600117;-27
2024/01/14 03:19:19;;;;;;;7.00;4.90;;;;;;;-0.39;72.58;97623.87;105680;1253;61166;-28
2024/01/14 03:21:47;;;;;;;6.50;4.20;;;;;;;-0.57;72.76;97619.62;105670;1253;61140;-29
2024/01/14 03:24:15;;;;;;;6.50;4.30;;;;;;;-0.88;73.99;97612.08;105650;1258;72237;-29
2024/01/14 03:26:42;;;;;;;11.50;5.90;;;;;;;-0.70;74.25;97606.27;105502;1262;74344;-29
2024/01/14 03:29:10;;;;;;;8.50;4.70;;;;;;;-0.22;72.59;97611.61;105569;1260;72645;-29
2024/01/14 03:39:14;;;;;;;6.20;4.00;;;;;;;-0.67;73.94;97606.39;102609;1291;599388;-30
2024/01/14 03:41:42;;;;;;;10.10;6.00;;;;;;;-0.97;74.76;97591.79;105308;1261;60993;-29
2024/01/14 03:44:10;;;;;;;5.10;3.50;;;;;;;-0.81;75.27;97594.77;105701;1257;61165;-29
2024/01/14 03:46:38;;;;;;;10.00;5.20;;;;;;;-0.35;73.79;97600.63;105638;1259;72194;-29
2024/01/14 03:49:05;;;;;;;5.00;3.60;;;;;;;-0.37;73.09;97593.73;105634;1259;74304;-29
2024/01/14 03:51:33;;;;;;;10.60;6.50;;;;;;;-0.47;73.05;97594.19;105602;1256;71066;-29
2024/01/14 03:54:01;;;;;;;9.30;5.10;;;;;;;-0.71;73.55;97588.08;105725;1257;173335;-29
2024/01/14 03:56:29;;;;;;;8.70;5.10;;;;;;;-1.02;74.47;97578.92;105847;1257;61118;-28
2024/01/14 03:58:56;;;;;;;5.80;4.00;;;;;;;-0.77;74.60;97586.70;105705;1254;72175;-29
2024/01/14 04:01:25;;;;;;;7.90;4.90;;;;;;;-0.16;72.78;97588.59;105860;1259;74334;-29
2024/01/14 04:03:52;;;;;;;7.80;4.00;;;;;;;-0.22;72.09;97579.88;105861;1253;72657;-27
2024/01/14 04:06:20;;;;;;;11.50;5.80;;;;;;;-0.48;72.74;97573.61;105844;1256;61182;-26
2024/01/14 04:08:48;;;;;;;7.10;4.50;;;;;;;-0.65;73.15;97572.05;105928;1256;61039;-27
2024/01/14 04:18:56;;;;;;;7.60;3.70;;;;;;;-0.40;73.64;97558.63;102765;1292;599448;-28
2024/01/14 04:21:23;;;;;;;7.80;4.80;;;;;;;-0.41;72.79;97553.09;104812;1265;61091;-29
2024/01/14 04:23:51;;;;;;;8.50;4.60;;;;;;;-0.59;73.45;97551.09;105503;1257;61104;-29
2024/01/14 04:26:23;;;;;;;8.80;3.20;;;;;;;-0.83;74.20;97551.45;105213;1258;72191;-29
2024/01/14 04:28:51;;;;;;;11.90;6.90;;;;;;;-1.02;75.08;97544.89;105268;1259;74273;-28
2024/01/14 04:38:55;;;;;;;8.80;5.10;;;;;;;-0.63;73.83;97530.49;103040;1291;599335;-28
2024/01/14 04:41:22;;;;;;;5.40;4.10;;;;;;;-0.84;74.64;97531.05;104860;1267;61094;-28
2024/01/14 04:43:50;;;;;;;8.90;4.70;;;;;;;-0.86;74.27;97529.67;104864;1270;61183;-29
2024/01/14 04:46:19;;;;;;;7.30;4.50;;;;;;;-0.99;74.57;97529.20;104858;1270;70934;-28
2024/01/14 04:48:46;;;;;;;10.70;4.40;;;;;;;-0.81;74.83;97517.39;105131;1270;73060;-28
2024/01/14 04:51:15;;;;;;;8.70;4.90;;;;;;;-0.37;73.05;97526.73;104858;1267;71452;-29
2024/01/14 04:53:44;;;;;;;4.40;3.50;;;;;;;-0.30;72.24;97513.17;104817;1267;148477;-28
2024/01/14 05:03:47;;;;;;;5.20;4.10;;;;;;;-1.05;75.61;97517.48;102650;1292;600054;-28
2024/01/14 05:13:55;;;;;;;7.20;3.90;;;;;;;-0.65;73.45;97511.16;102751;1291;599002;-29
2024/01/14 05:16:23;;;;;;;9.80;6.20;;;;;;;-1.00;74.54;97508.84;104910;1270;61131;-28
2024/01/14 05:18:51;;;;;;;4.80;3.70;;;;;;;-1.02;74.66;97509.28;104833;1271;61153;-28
2024/01/14 05:21:19;;;;;;;5.20;3.20;;;;;;;-0.52;73.33;97511.80;104820;1267;70006;-29
2024/01/14 05:23:47;;;;;;;8.20;5.00;;;;;;;-0.34;72.27;97503.70;104820;1270;74428;-29
2024/01/14 05:26:15;;;;;;;9.70;5.20;;;;;;;-0.29;71.91;97510.39;104774;1271;71422;-28
2024/01/14 05:36:20;;;;;;;3.90;2.80;;;;;;;-0.82;73.82;97486.13;102686;1295;600210;-28
2024/01/14 05:38:48;;;;;;;8.50;5.50;;;;;;;-0.36;71.88;97491.88;104858;1269;61113;-27
2024/01/14 05:41:15;;;;;;;5.70;3.60;;;;;;;-0.52;72.00;97486.20;104863;1269;61146;-27
2024/01/14 05:43:43;;;;;;;5.90;4.30;;;;;;;-0.72;71.97;97484.33;104865;1269;72247;-28
2024/01/14 05:46:11;;;;;;;4.70;3.00;;;;;;;-0.99;73.04;97491.04;105419;1263;73016;-28
2024/01/14 05:48:38;;;;;;;6.00;3.80;;;;;;;-1.01;73.01;97491.48;105393;1272;72674;-28
2024/01/14 05:58:43;;;;;;;4.20;3.10;;;;;;;-0.60;72.14;97504.58;102751;1289;600134;-28
2024/01/14 06:01:11;;;;;;;9.40;6.80;;;;;;;-0.80;72.76;97497.94;104890;1266;61069;-29
2024/01/14 06:03:38;;;;;;;4.40;2.90;;;;;;;-1.07;73.28;97501.55;104819;1264;61156;-29
2024/01/14 06:06:06;;;;;;;4.40;3.00;;;;;;;-1.12;74.41;97507.47;104872;1266;70976;-29
2024/01/14 06:08:35;;;;;;;7.80;4.60;;;;;;;-0.53;72.28;97499.41;104845;1267;74314;-29
2024/01/14 06:11:04;;;;;;;5.30;3.60;;;;;;;-0.38;71.36;97503.27;108625;1264;71462;-27
2024/01/14 06:13:31;;;;;;;7.80;3.40;;;;;;;-0.52;71.26;97505.63;108631;1263;176406;-27
2024/01/14 06:15:59;;;;;;;5.80;3.90;;;;;;;-0.67;71.71;97495.13;108784;1262;58867;-27
2024/01/14 06:18:28;;;;;;;6.70;3.20;;;;;;;-0.90;72.16;97481.78;108749;1262;70972;-27
2024/01/14 06:20:55;;;;;;;6.80;3.70;;;;;;;-1.02;72.57;97487.48;108766;1263;74503;-27
2024/01/14 06:23:23;;;;;;;9.40;4.00;;;;;;;-0.91;72.92;97502.98;108773;1263;72719;-27
2024/01/14 06:25:51;;;;;;;6.40;3.70;;;;;;;-0.50;71.24;97489.48;108773;1265;59312;-27
2024/01/14 06:28:18;;;;;;;4.30;2.70;;;;;;;-0.31;70.37;97495.31;108781;1263;58829;-27
2024/01/14 06:30:46;;;;;;;7.40;3.80;;;;;;;-0.58;70.97;97490.13;109179;1257;73085;-27
2024/01/14 06:33:13;;;;;;;5.00;3.20;;;;;;;-0.89;71.85;97497.41;109199;1256;73768;-27
2024/01/14 06:35:41;;;;;;;12.70;3.90;;;;;;;-0.73;71.33;97494.14;109151;1255;72787;-27
2024/01/14 06:38:08;;;;;;;7.70;3.90;;;;;;;-1.01;72.22;97488.41;109168;1256;59351;-27
2024/01/14 06:40:36;;;;;;;7.80;3.40;;;;;;;-0.80;71.99;97482.07;109189;1255;60229;-27
2024/01/14 06:43:09;;;;;;;3.80;2.90;;;;;;;-0.33;70.45;97481.46;109150;1257;71625;-27
2024/01/14 06:45:36;;;;;;;6.90;4.70;;;;;;;-0.11;69.19;97480.81;109184;1254;72367;-28
2024/01/14 06:48:04;;;;;;;1.80;1.60;;;;;;;-0.51;70.06;97472.98;109160;1256;72905;-28
2024/01/14 06:50:31;;;;;;;11.60;6.40;;;;;;;-0.67;70.65;97479.07;109119;1255;59302;-27
2024/01/14 06:52:59;;;;;;;6.00;2.40;;;;;;;-1.01;72.38;97471.91;109529;1251;60129;-27
2024/01/14 06:55:26;;;;;;;8.00;3.20;;;;;;;-1.01;73.05;97477.04;109518;1251;71869;-27
2024/01/14 06:57:54;;;;;;;5.60;3.70;;;;;;;-0.73;72.76;97487.78;109539;1251;73329;-27
2024/01/14 07:00:21;;;;;;;7.10;3.90;;;;;;;-0.23;71.53;97483.22;109491;1251;71435;-27
2024/01/14 07:02:49;;;;;;;5.80;2.50;;;;;;;-0.32;71.85;97477.65;109528;1251;59197;-27
2024/01/14 07:05:16;;;;;;;6.50;4.30;;;;;;;-0.21;71.84;97480.05;109520;1251;59015;-27
2024/01/14 07:07:44;;;;;;;13.00;3.10;;;;;;;-0.24;71.84;97485.88;109603;1252;73065;-27
2024/01/14 07:10:12;;;;;;;5.50;3.40;;;;;;;-0.59;72.96;97472.49;109490;1254;74298;-27
2024/01/14 07:12:39;;;;;;;8.40;4.70;;;;;;;-0.76;73.96;97472.46;109430;1251;71560;-30
2024/01/14 07:15:08;;;;;;;4.50;2.90;;;;;;;-0.88;74.52;97469.28;109508;1253;60840;-27
2024/01/14 07:17:35;;;;;;;5.30;3.40;;;;;;;-0.29;72.55;97463.67;109531;1251;58815;-27
2024/01/14 07:20:22;;;;;;;3.80;3.10;;;;;;;-0.08;71.49;97472.73;109528;1251;73076;-27
2024/01/14 07:22:50;;;;;;;12.60;3.40;;;;;;;-0.49;72.19;97472.53;109512;1251;74302;-27
2024/01/14 07:25:18;;;;;;;4.20;3.00;;;;;;;-0.63;72.92;97472.86;109499;1252;72676;-28
2024/01/14 07:27:45;;;;;;;3.50;2.70;;;;;;;-0.74;73.36;97466.91;109474;1252;59249;-27
2024/01/14 07:30:13;;;;;;;6.30;3.90;;;;;;;-0.85;73.43;97465.67;109489;1252;58667;-27
2024/01/14 07:32:41;;;;;;;8.70;3.30;;;;;;;-0.64;73.36;97458.45;109459;1252;71461;-27
2024/01/14 07:35:08;;;;;;;6.10;3.20;;;;;;;-0.14;71.69;97463.70;109477;1253;73047;-27
2024/01/14 07:37:36;;;;;;;5.40;3.20;;;;;;;-0.26;72.01;97460.06;109465;1252;72677;-27
2024/01/14 07:40:04;;;;;;;6.40;4.00;;;;;;;-0.41;72.94;97458.90;109479;1252;58803;-27
2024/01/14 07:42:32;;;;;;;6.00;3.20;;;;;;;-0.39;72.55;97457.95;109476;1253;58856;-27
2024/01/14 07:45:00;;;;;;;7.80;3.50;;;;;;;-0.61;73.60;97456.09;109457;1253;71806;-27
2024/01/14 07:47:27;;;;;;;7.90;3.30;;;;;;;-1.07;75.81;97446.02;109476;1253;74572;-27
2024/01/14 07:49:54;;;;;;;5.40;2.90;;;;;;;-0.78;76.10;97453.13;109423;1252;72639;-26
2024/01/14 07:52:22;;;;;;;5.20;3.30;;;;;;;-0.33;74.54;97445.62;109437;1257;59416;-27
2024/01/14 07:54:49;;;;;;;8.40;5.00;;;;;;;-0.73;75.36;97448.63;109496;1252;58770;-27
2024/01/14 07:57:17;;;;;;;7.60;4.00;;;;;;;-0.75;75.11;97444.80;109433;1253;71788;-27
2024/01/14 07:59:44;;;;;;;6.70;4.20;;;;;;;-0.67;74.58;97445.17;109456;1253;74327;-27
2024/01/14 08:02:11;;;;;;;5.80;3.00;;;;;;;-1.02;75.97;97449.83;109438;1253;71371;-27
2024/01/14 08:04:39;;;;;;;4.00;2.20;;;;;;;-0.64;75.59;97445.84;109409;1255;59317;-26
2024/01/14 08:07:06;;;;;;;3.40;2.50;;;;;;;-0.19;73.63;97439.65;109459;1253;59969;-27
2024/01/14 08:09:34;;;;;;;14.20;4.20;;;;;;;-0.09;72.57;97436.35;109451;1253;73492;-27
2024/01/14 08:12:03;;;;;;;6.50;4.40;;;;;;;-0.14;71.88;97436.60;109437;1253;72696;-27
2024/01/14 08:14:30;;;;;;;6.50;3.90;;;;;;;-0.46;73.08;97441.67;109410;1253;72659;-27
2024/01/14 08:16:58;;;;;;;3.80;3.10;;;;;;;-0.78;74.03;97436.80;109375;1253;58780;-26
2024/01/14 08:19:25;;;;;;;5.20;3.10;;;;;;;-0.64;73.72;97429.33;109441;1252;60067;-27
2024/01/14 08:21:52;;;;;;;6.90;3.60;;;;;;;-0.30;72.80;97433.91;109432;1253;73488;-27
2024/01/14 08:24:20;;;;;;;6.20;3.70;;;;;;;0.21;71.45;97431.83;109453;1253;74344;-27
2024/01/14 08:26:48;;;;;;;5.40;3.50;;;;;;;0.23;70.68;97429.16;109376;1253;72974;-26
2024/01/14 08:29:16;;;;;;;3.40;2.70;;;;;;;-0.08;70.87;97412.34;109377;1254;58860;-27
2024/01/14 08:31:52;;;;;;;5.20;3.40;;;;;;;-0.20;71.16;97424.71;109374;1253;59049;-27
2024/01/14 08:34:20;;;;;;;4.80;3.20;;;;;;;-0.37;71.34;97432.27;109383;1253;72807;-27
2024/01/14 08:36:47;;;;;;;7.90;4.70;;;;;;;-0.57;72.83;97430.05;109399;1253;74331;-27
2024/01/14 08:39:15;;;;;;;4.10;3.20;;;;;;;-0.44;72.61;97426.73;109370;1253;71491;-27
2024/01/14 08:41:44;;;;;;;4.10;3.20;;;;;;;-0.01;71.17;97428.45;109364;1253;58785;-27
2024/01/14 08:44:11;;;;;;;10.60;4.30;;;;;;;0.12;69.96;97425.91;109256;1253;58779;-27
2024/01/14 08:46:44;;;;;;;6.60;4.30;;;;;;;0.03;70.22;97425.12;109359;1253;71798;-27
2024/01/14 08:49:12;;;;;;;8.90;5.60;;;;;;;-0.34;71.42;97424.92;109149;1253;74267;-27
2024/01/14 08:51:40;;;;;;;3.90;2.90;;;;;;;-0.47;71.84;97424.55;109368;1253;71322;-26
2024/01/14 08:54:07;;;;;;;8.30;5.50;;;;;;;-0.46;71.77;97424.30;109380;1253;59266;-27
2024/01/14 08:56:35;;;;;;;6.70;3.60;;;;;;;-0.61;72.87;97424.33;109362;1253;59985;-27
2024/01/14 08:59:03;;;;;;;5.20;3.40;;;;;;;0.04;71.09;97416.00;109424;1253;71820;-27
2024/01/14 09:01:30;;;;;;;6.80;3.70;;;;;;;0.23;69.70;97411.20;109403;1253;73153;-27
2024/01/14 09:03:58;;;;;;;3.20;2.70;;;;;;;0.19;69.55;97407.77;109363;1253;72665;-27
2024/01/14 09:06:26;;;;;;;6.80;4.20;;;;;;;0.04;70.08;97405.78;109395;1254;59281;-27
2024/01/14 09:08:53;;;;;;;9.00;3.60;;;;;;;-0.04;70.30;97398.48;109270;1253;62206;-27
2024/01/14 09:11:21;;;;;;;11.40;4.40;;;;;;;-0.49;71.54;97397.40;109392;1253;72048;-27
2024/01/14 09:13:49;;;;;;;6.40;4.40;;;;;;;-0.39;72.02;97393.86;109389;1253;74435;-27
2024/01/14 09:16:16;;;;;;;6.40;3.90;;;;;;;0.08;70.47;97382.34;109397;1253;71377;-27
2024/01/14 09:18:43;;;;;;;7.00;4.60;;;;;;;0.31;69.08;97385.61;109401;1253;58778;-27
2024/01/14 09:21:11;;;;;;;7.30;4.70;;;;;;;0.15;69.63;97382.86;109380;1252;58794;-27
2024/01/14 09:23:39;;;;;;;3.90;3.00;;;;;;;0.06;69.49;97381.59;109421;1253;72510;-27
2024/01/14 09:26:06;;;;;;;6.80;4.20;;;;;;;-0.21;70.78;97378.70;109281;1254;74273;-27
2024/01/14 09:28:35;;;;;;;6.60;4.00;;;;;;;-0.33;70.73;97379.84;109246;1253;71755;-27
2024/01/14 09:31:02;;;;;;;8.50;2.90;;;;;;;-0.54;71.89;97380.98;109138;1254;58943;-27
2024/01/14 09:33:30;;;;;;;7.80;4.50;;;;;;;-0.31;71.88;97372.53;109289;1254;59961;-27
2024/01/14 09:36:09;;;;;;;6.40;3.80;;;;;;;0.26;70.31;97373.98;109257;1254;73032;-27
2024/01/14 09:38:37;;;;;;;7.60;4.70;;;;;;;0.20;69.63;97358.65;109262;1254;74279;-28
2024/01/14 09:41:37;;;;;;;6.70;4.00;;;;;;;0.22;69.70;97361.32;109252;1254;72669;-27
2024/01/14 09:44:05;;;;;;;4.50;3.60;;;;;;;-0.02;69.91;97362.34;109134;1254;58810;-29
2024/01/14 09:46:32;;;;;;;4.70;2.90;;;;;;;-0.29;71.07;97357.55;109247;1254;59793;-28
2024/01/14 09:49:00;;;;;;;7.70;3.80;;;;;;;-0.29;71.43;97356.17;109253;1254;74588;-29
2024/01/14 09:51:31;;;;;;;6.60;3.60;;;;;;;-0.56;72.42;97354.64;109266;1254;76501;-29
2024/01/14 09:54:00;;;;;;;6.50;4.30;;;;;;;-0.22;71.84;97353.16;109109;1254;74041;-28
2024/01/14 09:56:30;;;;;;;5.00;3.50;;;;;;;0.07;70.93;97352.05;109229;1256;60008;-27
2024/01/14 09:58:58;;;;;;;6.90;3.80;;;;;;;0.00;70.39;97345.48;109100;1254;60990;-27
2024/01/14 10:01:30;;;;;;;8.30;3.00;;;;;;;-0.01;70.39;97348.63;109260;1254;71431;-28
2024/01/14 10:04:00;;;;;;;7.20;3.60;;;;;;;-0.09;70.33;97342.12;109120;1254;74109;-27
2024/01/14 10:06:28;;;;;;;9.80;5.60;;;;;;;-0.50;71.67;97338.11;109269;1253;72457;-27
2024/01/14 10:08:56;;;;;;;6.80;4.10;;;;;;;-0.51;72.00;97334.45;109098;1254;59027;-26
2024/01/14 10:11:25;;;;;;;11.90;3.50;;;;;;;-0.57;72.37;97336.68;109250;1254;60113;-27
2024/01/14 10:13:53;;;;;;;9.20;4.30;;;;;;;0.02;70.63;97333.77;109244;1254;73678;-27
2024/01/14 10:16:22;;;;;;;6.80;4.70;;;;;;;0.39;69.11;97329.77;109160;1254;74400;-27
2024/01/14 10:19:10;;;;;;;5.50;2.50;;;;;;;0.05;69.30;97323.13;109254;1254;71908;-26
2024/01/14 10:21:37;;;;;;;4.70;3.30;;;;;;;-0.21;70.11;97318.02;109326;1255;59269;-27
2024/01/14 10:24:05;;;;;;;4.70;2.60;;;;;;;-0.22;70.14;97313.98;109247;1254;60987;-27
2024/01/14 10:26:34;;;;;;;8.30;5.20;;;;;;;-0.19;69.74;97320.64;109197;1256;73815;-27
2024/01/14 10:29:05;;;;;;;6.80;4.10;;;;;;;-0.21;70.39;97310.86;109229;1254;74518;-27
2024/01/14 10:31:32;;;;;;;6.10;4.00;;;;;;;-0.01;69.91;97313.98;109215;1254;70479;-27
2024/01/14 10:34:02;;;;;;;5.90;3.60;;;;;;;0.51;68.24;97312.77;109204;1254;58900;-27
2024/01/14 10:36:33;;;;;;;7.10;4.90;;;;;;;0.58;67.66;97304.23;109134;1254;61964;-27
2024/01/14 10:39:02;;;;;;;6.40;4.80;;;;;;;0.43;67.77;97313.81;109208;1254;75850;-27
2024/01/14 10:41:30;;;;;;;6.50;4.30;;;;;;;0.04;68.78;97306.50;109181;1254;74796;-27
2024/01/14 10:43:57;;;;;;;5.10;3.20;;;;;;;0.07;69.08;97303.20;109101;1254;74210;-27
2024/01/14 10:46:25;;;;;;;4.90;3.10;;;;;;;0.08;68.99;97304.30;109201;1254;61248;-26
2024/01/14 10:49:05;;;;;;;6.70;4.00;;;;;;;-0.10;69.70;97296.63;109143;1254;58700;-27
2024/01/14 10:51:38;;;;;;;5.20;3.60;;;;;;;-0.26;70.64;97299.25;109136;1255;74849;-27
2024/01/14 10:54:13;;;;;;;5.70;3.10;;;;;;;0.45;68.71;97298.62;109115;1254;74324;-27
2024/01/14 10:56:43;;;;;;;6.50;4.30;;;;;;;0.99;66.61;97295.27;109062;1254;72685;-27
2024/01/14 10:59:10;;;;;;;9.90;5.10;;;;;;;0.91;66.36;97295.67;109072;1259;59916;-27
2024/01/14 11:01:42;;;;;;;6.40;4.00;;;;;;;0.46;67.63;97296.04;109232;1254;59045;-27
2024/01/14 11:04:09;;;;;;;6.60;4.60;;;;;;;0.36;68.05;97284.17;109214;1256;71722;-27
2024/01/14 11:06:37;;;;;;;8.70;4.80;;;;;;;0.44;67.50;97282.64;109082;1254;76677;-27
2024/01/14 11:09:05;;;;;;;7.80;4.70;;;;;;;0.39;67.52;97285.05;109063;1255;70860;-27
2024/01/14 11:11:38;;;;;;;7.10;5.30;;;;;;;0.13;68.36;97280.14;109184;1254;58764;-27
2024/01/14 11:14:10;;;;;;;6.70;4.30;;;;;;;0.01;68.83;97272.92;109085;1254;60231;-28
2024/01/14 11:17:03;;;;;;;8.10;4.60;;;;;;;0.54;68.75;97278.05;109123;1254;75715;-28
2024/01/14 11:19:31;;;;;;;10.10;3.70;;;;;;;0.98;66.96;97274.16;109229;1254;74319;-27
2024/01/14 11:22:18;;;;;;;8.10;5.20;;;;;;;1.03;66.42;97277.05;109063;1261;71203;-27
2024/01/14 11:25:05;;;;;;;7.00;3.80;;;;;;;0.84;66.77;97278.20;109098;1259;59799;-27
2024/01/14 11:27:34;;;;;;;9.50;5.70;;;;;;;0.60;67.15;97264.35;109068;1255;60215;-27
2024/01/14 11:30:02;;;;;;;13.00;5.90;;;;;;;0.40;67.84;97273.88;109117;1256;75368;-27
2024/01/14 11:32:30;;;;;;;7.80;4.90;;;;;;;0.39;68.05;97268.48;109168;1255;74295;-28
2024/01/14 11:34:59;;;;;;;7.10;4.10;;;;;;;0.17;68.23;97264.14;109116;1256;74881;-29
2024/01/14 11:37:38;;;;;;;6.80;4.10;;;;;;;-0.16;69.36;97265.47;109143;1257;58785;-27
2024/01/14 11:40:07;;;;;;;8.10;3.90;;;;;;;0.44;68.81;97267.62;109202;1256;59595;-27
2024/01/14 11:42:50;;;;;;;7.80;4.10;;;;;;;0.65;67.57;97264.86;109183;1255;73857;-27
2024/01/14 11:45:25;;;;;;;6.40;4.30;;;;;;;0.81;66.99;97263.73;109062;1255;72585;-27
2024/01/14 11:47:54;;;;;;;9.40;5.70;;;;;;;0.48;67.71;97261.02;109222;1256;72721;-27
2024/01/14 11:50:23;;;;;;;8.30;5.40;;;;;;;0.57;67.61;97259.61;109060;1255;61390;-27
2024/01/14 11:52:53;;;;;;;8.50;5.20;;;;;;;0.39;68.11;97260.99;109061;1256;60991;-27
2024/01/14 11:55:24;;;;;;;7.60;5.00;;;;;;;0.35;68.39;97257.69;109102;1263;75441;-27
2024/01/14 11:57:53;;;;;;;11.80;6.20;;;;;;;0.33;68.48;97251.65;109025;1256;73056;-27
2024/01/14 12:00:22;;;;;;;7.30;4.30;;;;;;;0.43;68.69;97253.18;109160;1256;74232;-27
2024/01/14 12:03:11;;;;;;;8.00;5.10;;;;;;;1.14;67.33;97249.10;109135;1256;61427;-27
2024/01/14 12:05:40;;;;;;;8.40;4.40;;;;;;;1.52;65.83;97253.75;109237;1256;58907;-27
2024/01/14 12:08:08;;;;;;;6.80;4.30;;;;;;;1.13;66.22;97245.42;109104;1256;72618;-27
2024/01/14 12:10:36;;;;;;;6.80;4.60;;;;;;;1.02;66.59;97245.84;109155;1256;74084;-28
2024/01/14 12:13:06;;;;;;;9.20;5.20;;;;;;;0.75;67.26;97241.58;109155;1256;72090;-27
2024/01/14 12:15:35;;;;;;;10.50;4.60;;;;;;;0.68;67.24;97243.77;109066;1256;59018;-28
2024/01/14 12:18:05;;;;;;;8.60;5.20;;;;;;;0.47;68.08;97251.73;109185;1256;58751;-28
2024/01/14 12:20:34;;;;;;;15.00;6.40;;;;;;;0.35;68.93;97248.79;109078;1256;73843;-29
2024/01/14 12:23:04;;;;;;;10.60;5.50;;;;;;;0.13;69.70;97244.80;109149;1256;72985;-27
2024/01/14 12:25:37;;;;;;;7.10;4.80;;;;;;;0.65;69.64;97244.81;109022;1259;73631;-29
2024/01/14 12:28:08;;;;;;;12.40;4.60;;;;;;;1.10;67.64;97235.93;109030;1257;58864;-27
2024/01/14 12:30:39;;;;;;;10.20;5.10;;;;;;;1.34;66.94;97242.91;108904;1257;60005;-27
2024/01/14 12:33:13;;;;;;;9.80;5.30;;;;;;;1.16;66.99;97238.39;109039;1257;73892;-27
2024/01/14 12:35:45;;;;;;;10.10;5.60;;;;;;;1.14;66.82;97243.34;109033;1258;73643;-27
2024/01/14 12:38:16;;;;;;;9.80;5.10;;;;;;;0.90;67.61;97242.27;108942;1258;74775;-27
2024/01/14 12:40:47;;;;;;;13.00;5.50;;;;;;;0.68;68.36;97241.05;108900;1257;58829;-27
2024/01/14 12:43:16;;;;;;;7.50;4.80;;;;;;;0.59;68.89;97237.43;108970;1258;60338;-27
2024/01/14 12:45:53;;;;;;;9.80;4.50;;;;;;;0.46;69.17;97239.48;109072;1257;73832;-27
2024/01/14 12:48:23;;;;;;;9.90;4.60;;;;;;;0.60;69.73;97240.23;109006;1257;76537;-27
2024/01/14 12:51:00;;;;;;;7.60;4.10;;;;;;;1.23;68.14;97246.27;108936;1258;74111;-27
2024/01/14 12:53:31;;;;;;;10.00;5.70;;;;;;;1.24;67.76;97242.08;108933;1257;59070;-27
2024/01/14 12:56:13;;;;;;;11.20;5.30;;;;;;;1.34;67.22;97250.26;109029;1257;60420;-27
2024/01/14 12:58:44;;;;;;;9.30;4.80;;;;;;;1.09;67.77;97241.75;109001;1257;72377;-27
2024/01/14 13:01:15;;;;;;;10.90;5.90;;;;;;;0.90;68.36;97246.34;109008;1257;74342;-26
2024/01/14 13:03:46;;;;;;;8.50;5.20;;;;;;;0.68;69.34;97245.99;108915;1257;73851;-27
2024/01/14 13:06:15;;;;;;;10.70;5.50;;;;;;;0.58;69.89;97246.85;108949;1258;59545;-27
2024/01/14 13:08:47;;;;;;;8.40;5.10;;;;;;;0.48;69.63;97243.30;109038;1257;59075;-27
2024/01/14 13:11:17;;;;;;;3.30;2.50;;;;;;;0.66;70.17;97245.78;108863;1259;73600;-27
2024/01/14 13:13:48;;;;;;;8.00;4.70;;;;;;;1.16;68.59;97243.36;109019;1257;76650;-27
2024/01/14 13:16:18;;;;;;;7.70;4.90;;;;;;;1.41;67.39;97248.88;109031;1258;74023;-27
2024/01/14 13:18:49;;;;;;;7.30;3.60;;;;;;;1.28;67.27;97244.22;109011;1257;59204;-27
2024/01/14 13:21:19;;;;;;;9.00;5.20;;;;;;;1.07;67.70;97245.55;109028;1257;58867;-27
2024/01/14 13:31:20;;;;;;;10.30;6.60;;;;;;;0.52;70.02;97244.58;102964;1290;600105;-28
2024/01/14 13:33:50;;;;;;;8.00;5.00;;;;;;;0.37;70.22;97241.15;104839;1270;61129;-28